Time;durP1;ratioP1;P1;durP2;ratioP2;P2;SDS_P1;SDS_P2;PMS_P1;PMS_P2;Temp;Humidity;BMP_temperature;BMP_pressure;BME280_temperature;BME280_humidity;BME280_pressure;Samples;Min_cycle;Max_cycle;Signal;HPM_P1;HPM_P2
2021/01/05 00:00:30;;;;;;;2.78;2.30;;;;;;;;;;4895278;29;20573;-69
2021/01/05 00:02:56;;;;;;;3.40;2.55;;;;;;;;;;4894679;29;20059;-69
2021/01/05 00:05:23;;;;;;;4.57;2.60;;;;;;;;;;4873740;29;20053;-69
2021/01/05 00:07:49;;;;;;;4.95;3.20;;;;;;;;;;4894080;29;20045;-70
2021/01/05 00:10:16;;;;;;;3.58;2.90;;;;;;;;;;4892831;29;20059;-70
2021/01/05 00:12:42;;;;;;;4.82;2.88;;;;;;;;;;4892925;29;20068;-69
2021/01/05 00:15:09;;;;;;;5.05;2.97;;;;;;;;;;4893741;29;20037;-69
2021/01/05 00:17:35;;;;;;;3.78;2.85;;;;;;;;;;4889815;29;20518;-69
2021/01/05 00:20:10;;;;;;;4.28;3.00;;;;;;;;;;4888156;29;20108;-69
2021/01/05 00:22:36;;;;;;;4.30;2.97;;;;;;;;;;4885821;29;20080;-69
2021/01/05 00:25:04;;;;;;;4.50;3.08;;;;;;;;;;4884775;29;20049;-70
2021/01/05 00:27:30;;;;;;;5.03;3.40;;;;;;;;;;4889139;29;20123;-69
2021/01/05 00:29:57;;;;;;;4.57;3.20;;;;;;;;;;4885976;29;20057;-69
2021/01/05 00:32:24;;;;;;;5.05;3.08;;;;;;;;;;4890326;29;20067;-69
2021/01/05 00:34:51;;;;;;;5.93;3.53;;;;;;;;;;4888125;29;20076;-69
2021/01/05 00:37:18;;;;;;;5.00;3.72;;;;;;;;;;4889591;29;20493;-69
2021/01/05 00:39:44;;;;;;;4.07;3.13;;;;;;;;;;4892887;29;20048;-69
2021/01/05 00:42:11;;;;;;;7.75;3.95;;;;;;;;;;4894112;29;20044;-70
2021/01/05 00:44:38;;;;;;;4.35;2.97;;;;;;;;;;4892745;29;20400;-69
2021/01/05 00:47:04;;;;;;;5.65;3.50;;;;;;;;;;4887200;29;20037;-69
2021/01/05 00:49:31;;;;;;;6.78;3.25;;;;;;;;;;4893475;29;20139;-69
2021/01/05 00:51:58;;;;;;;5.57;3.42;;;;;;;;;;4893232;29;20105;-69
2021/01/05 00:54:30;;;;;;;4.82;3.28;;;;;;;;;;4894682;29;20045;-70
2021/01/05 00:57:08;;;;;;;4.60;3.33;;;;;;;;;;4893562;29;20092;-69
2021/01/05 00:59:39;;;;;;;4.68;3.38;;;;;;;;;;4889032;29;20139;-69
2021/01/05 01:02:06;;;;;;;4.35;2.97;;;;;;;;;;4888701;29;20524;-69
2021/01/05 01:04:33;;;;;;;3.97;3.00;;;;;;;;;;4889000;29;20049;-69
2021/01/05 01:07:02;;;;;;;5.90;3.63;;;;;;;;;;4877341;29;20054;-69
2021/01/05 01:09:28;;;;;;;;;;;;;;;;;;4879410;29;20679;-69
2021/01/05 01:11:58;;;;;;;5.50;2.85;;;;;;;;;;4902291;29;20038;-69
2021/01/05 01:14:25;;;;;;;5.82;3.60;;;;;;;;;;4894174;29;20509;-69
2021/01/05 01:16:51;;;;;;;5.68;3.92;;;;;;;;;;4876777;29;20520;-69
2021/01/05 01:19:18;;;;;;;5.20;4.00;;;;;;;;;;4879333;29;20139;-69
2021/01/05 01:21:45;;;;;;;5.70;3.70;;;;;;;;;;4891289;29;20037;-69
2021/01/05 01:24:11;;;;;;;7.60;3.80;;;;;;;;;;4893939;29;20100;-69
2021/01/05 01:26:38;;;;;;;6.18;4.05;;;;;;;;;;4891914;29;20083;-69
2021/01/05 01:29:05;;;;;;;7.13;3.43;;;;;;;;;;4894464;29;20104;-69
2021/01/05 01:31:31;;;;;;;5.75;3.53;;;;;;;;;;4895529;29;20380;-69
2021/01/05 01:33:57;;;;;;;4.85;3.55;;;;;;;;;;4895416;29;20052;-69
2021/01/05 01:36:24;;;;;;;4.90;3.70;;;;;;;;;;4879255;29;20059;-69
2021/01/05 01:38:50;;;;;;;5.80;3.95;;;;;;;;;;4890714;29;20108;-69
2021/01/05 01:41:18;;;;;;;6.70;3.85;;;;;;;;;;4896606;29;20084;-69
2021/01/05 01:43:52;;;;;;;6.15;3.83;;;;;;;;;;4894197;29;20528;-69
2021/01/05 01:46:23;;;;;;;7.32;3.28;;;;;;;;;;4895574;29;20044;-69
2021/01/05 01:48:50;;;;;;;6.80;3.80;;;;;;;;;;4891316;29;20048;-69
2021/01/05 01:51:16;;;;;;;7.13;4.05;;;;;;;;;;4893428;29;20449;-69
2021/01/05 01:53:52;;;;;;;6.05;3.90;;;;;;;;;;4893856;29;20517;-69
2021/01/05 01:56:38;;;;;;;7.75;4.13;;;;;;;;;;4878297;29;20052;-69
2021/01/05 01:59:14;;;;;;;5.72;3.83;;;;;;;;;;4895231;29;20056;-69
2021/01/05 02:01:52;;;;;;;5.85;3.50;;;;;;;;;;4873344;29;20136;-69
2021/01/05 02:04:21;;;;;;;5.03;3.47;;;;;;;;;;4878699;29;20045;-69
2021/01/05 02:06:59;;;;;;;5.82;3.45;;;;;;;;;;4892164;29;20056;-69
2021/01/05 02:09:30;;;;;;;4.50;3.40;;;;;;;;;;4878470;29;20076;-69
2021/01/05 02:12:00;;;;;;;5.20;3.25;;;;;;;;;;4889487;29;20057;-69
2021/01/05 02:14:29;;;;;;;4.88;3.53;;;;;;;;;;4877536;29;20119;-69
2021/01/05 02:16:56;;;;;;;4.38;3.42;;;;;;;;;;4890326;29;20102;-69
2021/01/05 02:19:41;;;;;;;4.00;3.30;;;;;;;;;;4890145;29;20053;-69
2021/01/05 02:22:20;;;;;;;6.15;3.60;;;;;;;;;;4884167;29;20521;-69
2021/01/05 02:24:58;;;;;;;6.60;3.80;;;;;;;;;;4887150;29;20048;-69
2021/01/05 02:27:26;;;;;;;6.40;3.67;;;;;;;;;;4890176;29;20048;-69
2021/01/05 02:30:00;;;;;;;4.25;3.45;;;;;;;;;;4880487;29;20037;-69
2021/01/05 02:32:44;;;;;;;6.15;4.15;;;;;;;;;;4902508;29;20534;-69
2021/01/05 02:35:45;;;;;;;5.20;3.55;;;;;;;;;;4894880;29;20055;-69
2021/01/05 02:38:48;;;;;;;6.55;3.88;;;;;;;;;;4881162;29;20103;-69
2021/01/05 02:41:39;;;;;;;5.32;3.65;;;;;;;;;;4894936;29;20099;-69
2021/01/05 02:44:30;;;;;;;4.97;3.58;;;;;;;;;;4893026;29;20064;-69
2021/01/05 02:47:34;;;;;;;5.95;4.10;;;;;;;;;;4891484;29;20179;-69
2021/01/05 02:50:26;;;;;;;6.50;4.25;;;;;;;;;;4889713;29;20051;-69
2021/01/05 02:53:11;;;;;;;6.68;4.47;;;;;;;;;;4889159;29;20051;-69
2021/01/05 02:56:14;;;;;;;6.45;4.10;;;;;;;;;;4894985;29;20055;-69
2021/01/05 02:59:15;;;;;;;6.68;3.90;;;;;;;;;;4894078;29;20060;-69
2021/01/05 03:02:10;;;;;;;5.50;3.67;;;;;;;;;;4894945;29;20055;-69
2021/01/05 03:04:55;;;;;;;4.65;3.65;;;;;;;;;;4890130;29;20072;-69
2021/01/05 03:07:39;;;;;;;5.35;3.75;;;;;;;;;;4895180;29;20165;-69
2021/01/05 03:10:27;;;;;;;5.18;3.70;;;;;;;;;;4892531;29;20173;-69
2021/01/05 03:13:15;;;;;;;4.97;3.13;;;;;;;;;;4897710;29;20075;-69
2021/01/05 03:16:04;;;;;;;5.05;3.33;;;;;;;;;;4890086;29;20052;-69
2021/01/05 03:19:08;;;;;;;4.20;3.28;;;;;;;;;;4894839;29;20558;-70
2021/01/05 03:21:55;;;;;;;5.57;3.88;;;;;;;;;;4895109;29;20152;-69
2021/01/05 03:24:41;;;;;;;6.38;3.80;;;;;;;;;;4891470;29;20051;-69
2021/01/05 03:27:26;;;;;;;5.63;3.80;;;;;;;;;;4893296;29;20067;-69
2021/01/05 03:30:13;;;;;;;5.68;3.72;;;;;;;;;;4894858;29;20048;-69
2021/01/05 03:32:59;;;;;;;5.80;3.78;;;;;;;;;;4886627;29;20512;-69
2021/01/05 03:35:49;;;;;;;5.60;4.03;;;;;;;;;;4864173;29;20529;-69
2021/01/05 03:38:33;;;;;;;6.88;3.78;;;;;;;;;;4896227;29;20120;-69
2021/01/05 03:41:18;;;;;;;5.38;3.78;;;;;;;;;;4892326;29;20451;-69
2021/01/05 03:44:03;;;;;;;6.15;3.70;;;;;;;;;;4890568;29;20063;-69
2021/01/05 03:46:48;;;;;;;5.50;4.18;;;;;;;;;;4889095;29;20052;-69
2021/01/05 03:49:33;;;;;;;7.55;4.50;;;;;;;;;;4897836;29;20076;-69
2021/01/05 03:52:18;;;;;;;8.02;4.32;;;;;;;;;;4891863;29;20425;-69
2021/01/05 03:55:03;;;;;;;7.38;3.88;;;;;;;;;;4887849;29;20199;-69
2021/01/05 03:57:47;;;;;;;6.13;4.28;;;;;;;;;;4893835;29;20072;-69
2021/01/05 04:00:32;;;;;;;5.75;4.00;;;;;;;;;;4893652;29;20060;-69
2021/01/05 04:03:03;;;;;;;6.63;4.10;;;;;;;;;;4894657;29;20047;-69
2021/01/05 04:05:29;;;;;;;5.28;3.97;;;;;;;;;;4891664;29;20040;-69
2021/01/05 04:07:55;;;;;;;6.10;3.90;;;;;;;;;;4892725;29;20063;-69
2021/01/05 04:10:22;;;;;;;7.40;4.13;;;;;;;;;;4898361;29;20131;-69
2021/01/05 04:12:49;;;;;;;5.45;4.00;;;;;;;;;;4889703;29;20076;-69
2021/01/05 04:15:17;;;;;;;4.95;3.95;;;;;;;;;;4887018;29;20049;-69
2021/01/05 04:17:43;;;;;;;6.55;4.20;;;;;;;;;;4891147;29;20060;-69
2021/01/05 04:20:10;;;;;;;5.18;3.88;;;;;;;;;;4891327;29;20051;-69
2021/01/05 04:22:36;;;;;;;8.43;4.10;;;;;;;;;;4892408;29;20057;-69
2021/01/05 04:25:03;;;;;;;5.18;3.88;;;;;;;;;;4884834;29;20041;-69
2021/01/05 04:27:29;;;;;;;6.18;3.60;;;;;;;;;;4889965;29;20564;-69
2021/01/05 04:29:55;;;;;;;7.40;4.30;;;;;;;;;;4889470;29;20049;-69
2021/01/05 04:32:21;;;;;;;5.97;3.70;;;;;;;;;;4892768;29;20513;-69
2021/01/05 04:34:47;;;;;;;4.82;3.70;;;;;;;;;;4882612;29;20060;-70
2021/01/05 04:37:14;;;;;;;6.35;4.28;;;;;;;;;;4890131;29;20059;-69
2021/01/05 04:39:41;;;;;;;8.23;4.07;;;;;;;;;;4893035;29;20465;-69
2021/01/05 04:42:21;;;;;;;10.07;4.50;;;;;;;;;;4872388;29;20453;-69
2021/01/05 04:44:53;;;;;;;7.28;4.25;;;;;;;;;;4885214;29;20048;-70
2021/01/05 04:47:32;;;;;;;7.63;3.78;;;;;;;;;;4889438;29;20528;-69
2021/01/05 04:50:04;;;;;;;7.28;3.92;;;;;;;;;;4885397;29;20502;-69
2021/01/05 04:52:38;;;;;;;6.28;3.92;;;;;;;;;;4891450;29;20116;-69
2021/01/05 04:55:06;;;;;;;5.78;4.05;;;;;;;;;;4883358;29;20056;-70
2021/01/05 04:57:34;;;;;;;5.75;3.88;;;;;;;;;;4891865;29;20064;-69
2021/01/05 05:00:03;;;;;;;5.82;3.67;;;;;;;;;;4889335;29;20044;-69
2021/01/05 05:02:29;;;;;;;5.65;3.42;;;;;;;;;;4891872;29;20405;-69
2021/01/05 05:04:58;;;;;;;5.22;3.72;;;;;;;;;;4887515;29;20454;-70
2021/01/05 05:07:36;;;;;;;6.78;3.75;;;;;;;;;;4893701;29;20584;-69
2021/01/05 05:10:06;;;;;;;5.25;3.90;;;;;;;;;;4890478;29;20108;-69
2021/01/05 05:12:32;;;;;;;7.60;4.10;;;;;;;;;;4891074;29;20064;-69
2021/01/05 05:15:01;;;;;;;4.65;3.58;;;;;;;;;;4891828;29;20071;-70
2021/01/05 05:17:42;;;;;;;7.22;4.05;;;;;;;;;;4888917;29;20049;-69
2021/01/05 05:20:08;;;;;;;5.85;3.60;;;;;;;;;;4888179;29;20053;-70
2021/01/05 05:22:47;;;;;;;5.97;3.78;;;;;;;;;;4892091;29;20136;-69
2021/01/05 05:25:18;;;;;;;6.25;4.28;;;;;;;;;;4890089;29;20505;-69
2021/01/05 05:27:50;;;;;;;6.68;3.78;;;;;;;;;;4888147;29;20040;-70
2021/01/05 05:30:27;;;;;;;5.88;3.95;;;;;;;;;;4874864;29;20431;-69
2021/01/05 05:32:58;;;;;;;5.68;3.97;;;;;;;;;;4891927;29;20056;-69
2021/01/05 05:35:52;;;;;;;6.75;4.18;;;;;;;;;;4887567;29;20406;-69
2021/01/05 05:38:29;;;;;;;6.07;4.13;;;;;;;;;;4891065;29;20044;-69
2021/01/05 05:40:58;;;;;;;5.22;3.95;;;;;;;;;;4888109;29;20484;-69
2021/01/05 05:43:29;;;;;;;6.55;4.25;;;;;;;;;;4893898;29;20036;-69
2021/01/05 05:45:59;;;;;;;6.70;4.20;;;;;;;;;;4894278;29;20100;-69
2021/01/05 05:48:31;;;;;;;8.25;4.30;;;;;;;;;;4892240;29;21275;-69
2021/01/05 05:51:16;;;;;;;7.60;4.75;;;;;;;;;;4888661;29;20048;-70
2021/01/05 05:54:03;;;;;;;8.13;4.35;;;;;;;;;;4891752;29;20106;-69
2021/01/05 05:56:49;;;;;;;5.95;3.60;;;;;;;;;;4880595;29;20052;-69
2021/01/05 05:59:16;;;;;;;6.97;4.88;;;;;;;;;;4889287;29;20049;-69
2021/01/05 06:01:43;;;;;;;7.20;4.38;;;;;;;;;;4895397;29;20119;-69
2021/01/05 06:04:10;;;;;;;7.57;5.38;;;;;;;;;;4895906;29;20442;-70
2021/01/05 06:06:38;;;;;;;6.20;4.85;;;;;;;;;;4891923;29;20049;-69
2021/01/05 06:09:04;;;;;;;7.88;5.45;;;;;;;;;;4897691;29;20037;-69
2021/01/05 06:11:33;;;;;;;10.02;5.47;;;;;;;;;;4897142;29;20055;-69
2021/01/05 06:14:00;;;;;;;7.93;5.40;;;;;;;;;;4896394;29;20139;-69
2021/01/05 06:16:29;;;;;;;10.80;6.03;;;;;;;;;;4893955;29;20052;-70
2021/01/05 06:18:55;;;;;;;10.65;5.60;;;;;;;;;;4896287;29;20493;-70
2021/01/05 06:21:21;;;;;;;10.60;5.57;;;;;;;;;;4897097;29;20048;-70
2021/01/05 06:23:48;;;;;;;11.07;5.43;;;;;;;;;;4890133;29;20390;-70
2021/01/05 06:26:18;;;;;;;8.68;5.95;;;;;;;;;;4891756;29;20055;-69
2021/01/05 06:28:44;;;;;;;10.80;5.90;;;;;;;;;;4888352;29;20052;-69
2021/01/05 06:31:11;;;;;;;9.13;5.85;;;;;;;;;;4894717;29;20527;-70
2021/01/05 06:33:37;;;;;;;11.15;5.57;;;;;;;;;;4895315;29;20143;-69
2021/01/05 06:36:04;;;;;;;9.27;5.40;;;;;;;;;;4894564;29;20457;-69
2021/01/05 06:38:30;;;;;;;8.40;5.07;;;;;;;;;;4896890;29;20084;-70
2021/01/05 06:40:56;;;;;;;8.85;4.90;;;;;;;;;;4892573;29;20131;-69
2021/01/05 06:43:23;;;;;;;8.68;5.63;;;;;;;;;;4894057;29;20519;-69
2021/01/05 06:45:49;;;;;;;10.32;5.60;;;;;;;;;;4890064;29;20136;-69
2021/01/05 06:48:15;;;;;;;8.98;4.85;;;;;;;;;;4891364;29;20072;-70
2021/01/05 06:50:41;;;;;;;7.22;4.78;;;;;;;;;;4891759;29;20626;-69
2021/01/05 06:53:07;;;;;;;7.22;5.10;;;;;;;;;;4892608;29;20060;-70
2021/01/05 06:55:33;;;;;;;8.23;5.00;;;;;;;;;;4891157;29;20048;-70
2021/01/05 06:57:59;;;;;;;7.30;4.63;;;;;;;;;;4895874;29;20040;-70
2021/01/05 07:00:27;;;;;;;8.00;4.80;;;;;;;;;;4892590;29;20100;-70
2021/01/05 07:02:54;;;;;;;8.35;4.63;;;;;;;;;;4893176;29;20048;-69
2021/01/05 07:05:20;;;;;;;7.80;4.35;;;;;;;;;;4888091;29;20055;-70
2021/01/05 07:07:47;;;;;;;6.47;4.60;;;;;;;;;;4895226;29;20049;-69
2021/01/05 07:10:13;;;;;;;7.18;4.57;;;;;;;;;;4895803;29;20240;-70
2021/01/05 07:12:39;;;;;;;10.68;5.25;;;;;;;;;;4892504;29;20585;-69
2021/01/05 07:15:06;;;;;;;7.70;5.38;;;;;;;;;;4886805;29;20100;-70
2021/01/05 07:17:33;;;;;;;6.88;4.95;;;;;;;;;;4890265;29;20052;-69
2021/01/05 07:19:59;;;;;;;8.93;5.18;;;;;;;;;;4896392;29;20084;-70
2021/01/05 07:22:26;;;;;;;7.28;4.82;;;;;;;;;;4889507;29;20048;-70
2021/01/05 07:24:52;;;;;;;8.23;5.20;;;;;;;;;;4895845;29;20561;-70
2021/01/05 07:27:18;;;;;;;7.93;5.40;;;;;;;;;;4887773;29;20056;-69
2021/01/05 07:29:44;;;;;;;8.82;5.65;;;;;;;;;;4888537;29;20096;-69
2021/01/05 07:32:10;;;;;;;9.18;5.43;;;;;;;;;;4891594;29;20047;-69
2021/01/05 07:34:39;;;;;;;8.27;5.38;;;;;;;;;;4894116;29;20052;-69
2021/01/05 07:37:11;;;;;;;7.32;5.18;;;;;;;;;;4893724;29;20048;-69
2021/01/05 07:39:37;;;;;;;9.07;5.55;;;;;;;;;;4891873;29;20044;-69
2021/01/05 07:42:12;;;;;;;8.75;5.80;;;;;;;;;;4892349;29;20037;-69
2021/01/05 07:44:38;;;;;;;8.93;5.53;;;;;;;;;;4893270;29;20056;-69
2021/01/05 07:47:04;;;;;;;7.78;5.75;;;;;;;;;;4892223;29;20046;-69
2021/01/05 07:49:31;;;;;;;9.18;5.82;;;;;;;;;;4892941;29;20103;-69
2021/01/05 07:51:57;;;;;;;11.65;6.18;;;;;;;;;;4895607;29;20100;-68
2021/01/05 07:54:23;;;;;;;7.45;5.32;;;;;;;;;;4894515;29;20037;-69
2021/01/05 07:56:50;;;;;;;8.45;6.00;;;;;;;;;;4895795;29;20040;-69
2021/01/05 07:59:18;;;;;;;9.02;5.85;;;;;;;;;;4893862;29;20564;-68
2021/01/05 08:01:45;;;;;;;9.27;5.97;;;;;;;;;;4889553;29;20124;-68
2021/01/05 08:04:12;;;;;;;8.25;5.70;;;;;;;;;;4895796;29;20068;-68
2021/01/05 08:06:41;;;;;;;7.60;5.40;;;;;;;;;;4874073;29;20706;-69
2021/01/05 08:09:08;;;;;;;8.27;6.30;;;;;;;;;;4893249;29;20102;-69
2021/01/05 08:11:38;;;;;;;7.45;5.38;;;;;;;;;;4891786;29;20051;-69
2021/01/05 08:14:04;;;;;;;10.57;6.03;;;;;;;;;;4892273;29;20040;-69
2021/01/05 08:16:31;;;;;;;7.40;5.60;;;;;;;;;;4891913;29;20045;-69
2021/01/05 08:18:57;;;;;;;9.85;5.72;;;;;;;;;;4893432;29;20080;-69
2021/01/05 08:21:27;;;;;;;8.25;5.40;;;;;;;;;;4892219;29;20743;-69
2021/01/05 08:23:53;;;;;;;9.43;5.00;;;;;;;;;;4887199;29;20063;-70
2021/01/05 08:26:20;;;;;;;7.13;4.60;;;;;;;;;;4889737;29;20047;-69
2021/01/05 08:28:47;;;;;;;8.43;4.40;;;;;;;;;;4888079;29;20068;-69
2021/01/05 08:31:13;;;;;;;8.93;6.10;;;;;;;;;;4892454;29;20060;-69
2021/01/05 08:33:40;;;;;;;7.53;4.87;;;;;;;;;;4891512;29;20045;-70
2021/01/05 08:36:25;;;;;;;9.05;5.88;;;;;;;;;;4889066;29;20123;-69
2021/01/05 08:38:52;;;;;;;6.90;4.85;;;;;;;;;;4894892;29;20064;-69
2021/01/05 08:41:18;;;;;;;8.15;4.40;;;;;;;;;;4892288;29;20579;-70
2021/01/05 08:43:44;;;;;;;7.45;4.63;;;;;;;;;;4889309;29;20049;-70
2021/01/05 08:46:17;;;;;;;7.88;4.13;;;;;;;;;;4890021;29;20064;-69
2021/01/05 08:48:43;;;;;;;6.35;4.28;;;;;;;;;;4892813;29;20088;-69
2021/01/05 08:51:09;;;;;;;8.88;4.20;;;;;;;;;;4894365;29;20395;-69
2021/01/05 08:53:35;;;;;;;6.88;4.45;;;;;;;;;;4894799;29;20058;-69
2021/01/05 08:56:01;;;;;;;8.23;4.13;;;;;;;;;;4892988;29;20041;-69
2021/01/05 08:58:28;;;;;;;6.75;4.53;;;;;;;;;;4876010;29;20135;-70
2021/01/05 09:00:55;;;;;;;6.57;4.28;;;;;;;;;;4892839;29;20045;-69
2021/01/05 09:03:21;;;;;;;6.97;3.92;;;;;;;;;;4893082;29;20068;-70
2021/01/05 09:05:47;;;;;;;6.47;4.32;;;;;;;;;;4891349;29;20482;-69
2021/01/05 09:08:14;;;;;;;6.45;3.92;;;;;;;;;;4892642;29;20057;-69
2021/01/05 09:10:40;;;;;;;4.65;3.10;;;;;;;;;;4882143;29;20044;-70
2021/01/05 09:13:06;;;;;;;5.57;3.92;;;;;;;;;;4874861;29;20037;-69
2021/01/05 09:15:33;;;;;;;11.93;4.15;;;;;;;;;;4891424;29;20584;-70
2021/01/05 09:18:02;;;;;;;6.10;3.88;;;;;;;;;;4894820;29;20059;-69
2021/01/05 09:20:28;;;;;;;9.20;4.40;;;;;;;;;;4892239;29;20127;-69
2021/01/05 09:22:55;;;;;;;5.15;3.53;;;;;;;;;;4890569;29;20542;-69
2021/01/05 09:25:22;;;;;;;5.20;3.88;;;;;;;;;;4884923;29;20040;-70
2021/01/05 09:27:49;;;;;;;5.38;4.03;;;;;;;;;;4893195;29;20072;-69
2021/01/05 09:30:15;;;;;;;;;;;;;;;;;;4895371;29;20053;-70
2021/01/05 09:32:42;;;;;;;7.25;3.75;;;;;;;;;;4895694;29;19933;-69
2021/01/05 09:35:09;;;;;;;5.85;4.00;;;;;;;;;;4896867;29;20847;-70
2021/01/05 09:37:35;;;;;;;6.15;4.40;;;;;;;;;;4880856;29;20061;-70
2021/01/05 09:40:01;;;;;;;6.75;3.97;;;;;;;;;;4891363;29;20561;-70
2021/01/05 09:42:28;;;;;;;7.78;4.60;;;;;;;;;;4891074;29;20048;-69
2021/01/05 09:44:54;;;;;;;9.17;4.53;;;;;;;;;;4895874;29;20048;-69
2021/01/05 09:47:20;;;;;;;6.40;4.25;;;;;;;;;;4894331;29;20052;-69
2021/01/05 09:49:47;;;;;;;6.45;4.45;;;;;;;;;;4895852;29;20588;-69
2021/01/05 09:52:13;;;;;;;6.78;4.45;;;;;;;;;;4897723;29;20091;-70
2021/01/05 09:54:39;;;;;;;9.43;4.85;;;;;;;;;;4896553;29;20052;-70
2021/01/05 09:57:05;;;;;;;7.07;4.78;;;;;;;;;;4889310;29;20057;-70
2021/01/05 09:59:31;;;;;;;6.72;4.40;;;;;;;;;;4896093;29;20048;-69
2021/01/05 10:02:01;;;;;;;6.20;4.60;;;;;;;;;;4896876;29;20041;-69
2021/01/05 10:04:27;;;;;;;7.38;4.38;;;;;;;;;;4897629;29;20097;-69
2021/01/05 10:06:54;;;;;;;7.35;4.70;;;;;;;;;;4896807;29;20445;-69
2021/01/05 10:09:20;;;;;;;7.90;4.35;;;;;;;;;;4893133;29;20053;-70
2021/01/05 10:11:47;;;;;;;7.20;4.78;;;;;;;;;;4894453;29;20072;-69
2021/01/05 10:14:14;;;;;;;7.70;4.80;;;;;;;;;;4896606;29;20111;-69
2021/01/05 10:16:41;;;;;;;6.82;4.15;;;;;;;;;;4894102;29;20064;-70
2021/01/05 10:19:09;;;;;;;6.47;4.30;;;;;;;;;;4892321;29;20049;-69
2021/01/05 10:21:36;;;;;;;5.82;4.55;;;;;;;;;;4895953;29;20618;-70
2021/01/05 10:24:03;;;;;;;6.90;4.65;;;;;;;;;;4894716;29;20237;-70
2021/01/05 10:26:30;;;;;;;6.73;4.37;;;;;;;;;;4892676;29;20045;-70
2021/01/05 10:29:00;;;;;;;5.90;4.05;;;;;;;;;;4894416;29;20049;-69
2021/01/05 10:31:26;;;;;;;9.68;4.72;;;;;;;;;;4895564;29;20104;-70
2021/01/05 10:33:52;;;;;;;6.00;4.55;;;;;;;;;;4889452;29;20053;-69
2021/01/05 10:36:20;;;;;;;7.10;4.63;;;;;;;;;;4888712;29;20069;-69
2021/01/05 10:39:07;;;;;;;5.53;4.20;;;;;;;;;;4891020;29;20068;-69
2021/01/05 10:41:35;;;;;;;6.90;4.57;;;;;;;;;;4891095;29;20049;-70
2021/01/05 10:44:01;;;;;;;5.88;4.18;;;;;;;;;;4893287;29;20100;-69
2021/01/05 10:46:28;;;;;;;7.93;4.00;;;;;;;;;;4886969;29;20041;-70
2021/01/05 10:48:54;;;;;;;6.88;4.60;;;;;;;;;;4895751;29;20072;-69
2021/01/05 10:51:20;;;;;;;5.68;4.10;;;;;;;;;;4890185;29;20052;-69
2021/01/05 10:53:46;;;;;;;6.18;4.15;;;;;;;;;;4897855;29;20041;-69
2021/01/05 10:56:16;;;;;;;7.10;4.13;;;;;;;;;;4895003;29;20032;-70
2021/01/05 10:58:42;;;;;;;6.13;3.70;;;;;;;;;;4895931;29;20049;-70
2021/01/05 11:01:08;;;;;;;6.78;4.03;;;;;;;;;;4894105;29;20164;-70
2021/01/05 11:03:36;;;;;;;5.32;3.40;;;;;;;;;;4895304;29;20123;-70
2021/01/05 11:06:06;;;;;;;5.53;3.78;;;;;;;;;;4893857;29;20055;-70
2021/01/05 11:08:32;;;;;;;4.97;3.35;;;;;;;;;;4889334;29;20088;-69
2021/01/05 11:11:00;;;;;;;5.43;3.60;;;;;;;;;;4892101;29;20040;-69
2021/01/05 11:13:29;;;;;;;5.53;3.40;;;;;;;;;;4895702;29;20048;-69
2021/01/05 11:15:55;;;;;;;5.78;3.90;;;;;;;;;;4891257;29;20105;-69
2021/01/05 11:18:22;;;;;;;4.90;3.30;;;;;;;;;;4896329;29;20052;-70
2021/01/05 11:20:48;;;;;;;4.32;3.30;;;;;;;;;;4894969;29;20136;-69
2021/01/05 11:23:15;;;;;;;4.78;3.35;;;;;;;;;;4895547;29;20056;-70
2021/01/05 11:25:42;;;;;;;6.60;3.50;;;;;;;;;;4889451;29;20104;-70
2021/01/05 11:28:08;;;;;;;4.70;3.25;;;;;;;;;;4890456;29;20045;-70
2021/01/05 11:30:38;;;;;;;4.50;3.35;;;;;;;;;;4896815;29;20394;-69
2021/01/05 11:33:04;;;;;;;4.13;3.08;;;;;;;;;;4886513;29;20148;-69
2021/01/05 11:35:30;;;;;;;3.42;2.85;;;;;;;;;;4885460;29;20071;-69
2021/01/05 11:37:56;;;;;;;4.53;3.20;;;;;;;;;;4894120;29;20476;-70
2021/01/05 11:40:22;;;;;;;4.68;3.17;;;;;;;;;;4893666;29;20130;-69
2021/01/05 11:42:49;;;;;;;6.07;3.22;;;;;;;;;;4890179;29;20052;-69
2021/01/05 11:45:15;;;;;;;5.10;3.47;;;;;;;;;;4890995;29;20489;-70
2021/01/05 11:47:41;;;;;;;3.42;2.42;;;;;;;;;;4895124;29;20045;-69
2021/01/05 11:50:10;;;;;;;5.45;3.13;;;;;;;;;;4889681;29;20084;-69
2021/01/05 11:52:37;;;;;;;5.43;3.47;;;;;;;;;;4891341;29;20044;-70
2021/01/05 11:55:04;;;;;;;6.50;3.30;;;;;;;;;;4891585;29;20413;-69
2021/01/05 11:57:30;;;;;;;5.80;3.63;;;;;;;;;;4888279;29;20062;-69
2021/01/05 11:59:56;;;;;;;5.30;3.60;;;;;;;;;;4895916;29;20047;-69
2021/01/05 12:02:22;;;;;;;4.85;3.00;;;;;;;;;;4894854;29;20041;-69
2021/01/05 12:04:52;;;;;;;6.47;3.38;;;;;;;;;;4893021;29;20454;-69
2021/01/05 12:07:18;;;;;;;6.38;4.05;;;;;;;;;;4893162;29;20056;-70
2021/01/05 12:09:44;;;;;;;6.03;3.65;;;;;;;;;;4887269;29;20505;-69
2021/01/05 12:12:10;;;;;;;4.35;3.25;;;;;;;;;;4890127;29;20060;-69
2021/01/05 12:14:36;;;;;;;6.53;3.85;;;;;;;;;;4897403;29;20049;-69
2021/01/05 12:17:03;;;;;;;5.28;4.15;;;;;;;;;;4893509;29;20044;-69
2021/01/05 12:19:30;;;;;;;5.57;3.70;;;;;;;;;;4895517;29;20036;-69
2021/01/05 12:21:58;;;;;;;5.90;4.13;;;;;;;;;;4896017;29;20061;-69
2021/01/05 12:24:25;;;;;;;5.10;3.53;;;;;;;;;;4892538;29;20048;-70
2021/01/05 12:26:55;;;;;;;5.93;3.88;;;;;;;;;;4894682;29;20127;-70
2021/01/05 12:29:23;;;;;;;5.30;3.60;;;;;;;;;;4895787;29;20048;-69
2021/01/05 12:31:51;;;;;;;4.70;3.38;;;;;;;;;;4890818;29;20128;-69
2021/01/05 12:34:19;;;;;;;3.75;3.00;;;;;;;;;;4893740;29;20695;-69
2021/01/05 12:36:45;;;;;;;5.13;3.80;;;;;;;;;;4883271;29;20044;-69
2021/01/05 12:39:15;;;;;;;4.63;3.15;;;;;;;;;;4893146;29;20131;-69
2021/01/05 12:41:42;;;;;;;6.88;2.88;;;;;;;;;;4891921;29;20430;-69
2021/01/05 12:44:08;;;;;;;3.10;2.60;;;;;;;;;;4895315;29;20051;-69
2021/01/05 12:46:38;;;;;;;4.18;2.75;;;;;;;;;;4890604;29;20055;-70
2021/01/05 12:49:05;;;;;;;3.90;2.80;;;;;;;;;;4893780;29;20096;-70
2021/01/05 12:51:36;;;;;;;3.50;2.78;;;;;;;;;;4892523;29;20052;-70
2021/01/05 12:54:02;;;;;;;5.18;2.75;;;;;;;;;;4890263;29;20767;-69
2021/01/05 12:56:28;;;;;;;3.65;2.50;;;;;;;;;;4892354;29;20053;-70
2021/01/05 12:58:54;;;;;;;6.20;2.50;;;;;;;;;;4892876;29;20060;-70
2021/01/05 13:01:21;;;;;;;4.10;2.47;;;;;;;;;;4892619;29;20056;-69
2021/01/05 13:03:48;;;;;;;5.60;2.78;;;;;;;;;;4891597;29;20048;-69
2021/01/05 13:06:15;;;;;;;2.92;2.00;;;;;;;;;;4890296;29;20044;-69
2021/01/05 13:08:41;;;;;;;3.50;2.70;;;;;;;;;;4889582;29;20109;-69
2021/01/05 13:11:08;;;;;;;3.80;2.53;;;;;;;;;;4891918;29;20045;-69
2021/01/05 13:13:34;;;;;;;4.50;2.47;;;;;;;;;;4889180;29;20061;-69
2021/01/05 13:16:00;;;;;;;3.17;2.30;;;;;;;;;;4890064;29;20048;-69
2021/01/05 13:18:27;;;;;;;3.33;2.50;;;;;;;;;;4890278;29;20049;-69
2021/01/05 13:20:53;;;;;;;2.83;2.30;;;;;;;;;;4889741;29;20049;-69
2021/01/05 13:23:19;;;;;;;3.58;2.33;;;;;;;;;;4889561;29;21821;-70
2021/01/05 13:25:45;;;;;;;3.42;2.50;;;;;;;;;;4888358;29;20041;-69
2021/01/05 13:28:11;;;;;;;4.22;2.50;;;;;;;;;;4891503;29;20104;-70
2021/01/05 13:30:37;;;;;;;3.50;2.42;;;;;;;;;;4890996;29;20115;-69
2021/01/05 13:33:04;;;;;;;2.90;2.40;;;;;;;;;;4888880;29;20095;-70
2021/01/05 13:35:30;;;;;;;4.15;2.65;;;;;;;;;;4891684;29;20045;-70
2021/01/05 13:37:56;;;;;;;4.07;2.50;;;;;;;;;;4892109;29;20048;-69
2021/01/05 13:40:22;;;;;;;4.40;2.42;;;;;;;;;;4892209;29;20767;-70
2021/01/05 13:42:48;;;;;;;6.03;2.95;;;;;;;;;;4891033;29;20045;-69
2021/01/05 13:45:15;;;;;;;4.05;2.78;;;;;;;;;;4888162;29;20061;-69
2021/01/05 13:47:41;;;;;;;4.67;3.00;;;;;;;;;;4889483;29;20085;-69
2021/01/05 13:50:07;;;;;;;4.68;3.22;;;;;;;;;;4892014;29;20049;-69
2021/01/05 13:52:45;;;;;;;4.97;3.40;;;;;;;;;;4893836;29;20560;-69
2021/01/05 13:55:12;;;;;;;4.60;2.70;;;;;;;;;;4891037;29;20425;-69
2021/01/05 13:57:38;;;;;;;4.28;2.92;;;;;;;;;;4893141;29;20049;-69
2021/01/05 14:00:04;;;;;;;4.97;3.03;;;;;;;;;;4888634;29;20516;-69
2021/01/05 14:02:31;;;;;;;5.38;3.50;;;;;;;;;;4886155;29;20132;-69
2021/01/05 14:04:57;;;;;;;6.00;3.50;;;;;;;;;;4885610;29;20116;-70
2021/01/05 14:07:23;;;;;;;6.70;3.97;;;;;;;;;;4886895;29;20052;-70
2021/01/05 14:09:50;;;;;;;5.00;3.60;;;;;;;;;;4890599;29;20102;-69
2021/01/05 14:12:16;;;;;;;5.25;3.53;;;;;;;;;;4891057;29;20417;-70
2021/01/05 14:14:42;;;;;;;7.00;4.32;;;;;;;;;;4876967;29;20088;-70
2021/01/05 14:17:08;;;;;;;7.03;3.85;;;;;;;;;;4888719;29;20045;-70
2021/01/05 14:19:34;;;;;;;6.53;4.35;;;;;;;;;;4895547;29;20052;-70
2021/01/05 14:22:00;;;;;;;8.57;4.25;;;;;;;;;;4891822;29;20614;-70
2021/01/05 14:24:27;;;;;;;5.95;3.97;;;;;;;;;;4889135;29;20127;-69
2021/01/05 14:26:57;;;;;;;6.63;3.85;;;;;;;;;;4894374;29;20041;-70
2021/01/05 14:29:24;;;;;;;7.28;4.32;;;;;;;;;;4892325;29;20116;-70
2021/01/05 14:31:51;;;;;;;7.80;3.93;;;;;;;;;;4891687;29;20056;-70
2021/01/05 14:34:18;;;;;;;4.63;3.53;;;;;;;;;;4892880;29;20135;-70
2021/01/05 14:36:44;;;;;;;5.07;4.10;;;;;;;;;;4888067;29;20516;-70
2021/01/05 14:39:11;;;;;;;4.20;3.17;;;;;;;;;;4889428;29;20494;-70
2021/01/05 14:41:38;;;;;;;6.93;3.83;;;;;;;;;;4891636;29;20553;-70
2021/01/05 14:44:05;;;;;;;5.60;3.22;;;;;;;;;;4894906;29;20057;-70
2021/01/05 14:46:33;;;;;;;4.03;3.05;;;;;;;;;;4896476;29;20072;-70
2021/01/05 14:48:59;;;;;;;6.13;3.22;;;;;;;;;;4886555;29;20137;-70
2021/01/05 14:51:27;;;;;;;3.70;2.83;;;;;;;;;;4892233;29;20044;-70
2021/01/05 14:53:53;;;;;;;4.38;3.35;;;;;;;;;;4893322;29;20052;-70
2021/01/05 14:56:20;;;;;;;5.35;2.92;;;;;;;;;;4892879;29;20083;-70
2021/01/05 14:58:46;;;;;;;4.15;3.25;;;;;;;;;;4893046;29;20453;-70